sensor_id;sensor_type;location;lat;lon;timestamp;temperature;humidity
10419;DHT22;5256;48.728;9.140;2024-01-15T00:01:54;-2.20;99.90
10419;DHT22;5256;48.728;9.140;2024-01-15T00:04:20;-2.20;99.90
10419;DHT22;5256;48.728;9.140;2024-01-15T00:06:45;-2.20;99.90
10419;DHT22;5256;48.728;9.140;2024-01-15T00:09:11;-2.20;99.90
10419;DHT22;5256;48.728;9.140;2024-01-15T00:11:36;-2.20;99.90
10419;DHT22;5256;48.728;9.140;2024-01-15T00:14:02;-2.20;99.90
10419;DHT22;5256;48.728;9.140;2024-01-15T00:16:28;-2.20;99.90
10419;DHT22;5256;48.728;9.140;2024-01-15T00:18:54;-2.20;99.90
10419;DHT22;5256;48.728;9.140;2024-01-15T00:21:19;-2.20;99.90
10419;DHT22;5256;48.728;9.140;2024-01-15T00:23:45;-2.20;99.90
10419;DHT22;5256;48.728;9.140;2024-01-15T00:26:11;-2.20;99.90
10419;DHT22;5256;48.728;9.140;2024-01-15T00:28:37;-2.20;99.90
10419;DHT22;5256;48.728;9.140;2024-01-15T00:31:04;-2.40;99.90
10419;DHT22;5256;48.728;9.140;2024-01-15T00:33:30;-2.40;99.90
10419;DHT22;5256;48.728;9.140;2024-01-15T00:35:55;-2.50;99.90
10419;DHT22;5256;48.728;9.140;2024-01-15T00:38:21;-2.60;99.90
10419;DHT22;5256;48.728;9.140;2024-01-15T00:40:46;-2.60;99.90
10419;DHT22;5256;48.728;9.140;2024-01-15T00:43:12;-2.60;99.90
10419;DHT22;5256;48.728;9.140;2024-01-15T00:45:38;-2.60;99.90
10419;DHT22;5256;48.728;9.140;2024-01-15T00:48:04;-2.70;99.90
10419;DHT22;5256;48.728;9.140;2024-01-15T00:50:30;-2.70;99.90
10419;DHT22;5256;48.728;9.140;2024-01-15T00:52:56;-2.80;99.90
10419;DHT22;5256;48.728;9.140;2024-01-15T00:55:21;-2.80;99.90
10419;DHT22;5256;48.728;9.140;2024-01-15T00:57:47;-2.80;99.90
10419;DHT22;5256;48.728;9.140;2024-01-15T01:00:13;-2.80;99.90
10419;DHT22;5256;48.728;9.140;2024-01-15T01:02:38;-2.80;99.90
10419;DHT22;5256;48.728;9.140;2024-01-15T01:05:04;-2.70;99.90
10419;DHT22;5256;48.728;9.140;2024-01-15T01:07:30;-2.70;99.90
10419;DHT22;5256;48.728;9.140;2024-01-15T01:09:55;-2.70;99.90
10419;DHT22;5256;48.728;9.140;2024-01-15T01:12:21;-2.60;99.90
10419;DHT22;5256;48.728;9.140;2024-01-15T01:14:47;-2.50;99.90
10419;DHT22;5256;48.728;9.140;2024-01-15T01:17:12;-2.40;99.90
10419;DHT22;5256;48.728;9.140;2024-01-15T01:19:38;-2.40;99.90
10419;DHT22;5256;48.728;9.140;2024-01-15T01:22:03;-2.30;99.90
10419;DHT22;5256;48.728;9.140;2024-01-15T01:24:29;-2.30;99.90
10419;DHT22;5256;48.728;9.140;2024-01-15T01:26:55;-2.30;99.90
10419;DHT22;5256;48.728;9.140;2024-01-15T01:29:20;-2.30;99.90
10419;DHT22;5256;48.728;9.140;2024-01-15T01:31:46;-2.30;99.90
10419;DHT22;5256;48.728;9.140;2024-01-15T01:34:16;-2.30;99.90
10419;DHT22;5256;48.728;9.140;2024-01-15T01:36:42;-2.30;99.90
10419;DHT22;5256;48.728;9.140;2024-01-15T01:39:08;-2.30;99.90
10419;DHT22;5256;48.728;9.140;2024-01-15T01:41:34;-2.30;99.90
10419;DHT22;5256;48.728;9.140;2024-01-15T01:44:00;-2.30;99.90
10419;DHT22;5256;48.728;9.140;2024-01-15T01:46:27;-2.30;99.90
10419;DHT22;5256;48.728;9.140;2024-01-15T01:48:53;-2.30;99.90
10419;DHT22;5256;48.728;9.140;2024-01-15T01:51:22;-2.30;99.90
10419;DHT22;5256;48.728;9.140;2024-01-15T01:53:48;-2.20;99.90
10419;DHT22;5256;48.728;9.140;2024-01-15T01:56:15;-2.30;99.90
10419;DHT22;5256;48.728;9.140;2024-01-15T01:58:41;-2.30;99.90
10419;DHT22;5256;48.728;9.140;2024-01-15T02:01:06;-2.20;99.90
10419;DHT22;5256;48.728;9.140;2024-01-15T02:03:32;-2.20;99.90
10419;DHT22;5256;48.728;9.140;2024-01-15T02:05:59;-2.20;99.90
10419;DHT22;5256;48.728;9.140;2024-01-15T02:08:26;-2.30;99.90
10419;DHT22;5256;48.728;9.140;2024-01-15T02:10:52;-2.20;99.90
10419;DHT22;5256;48.728;9.140;2024-01-15T02:13:20;-2.30;99.90
10419;DHT22;5256;48.728;9.140;2024-01-15T02:15:46;-2.30;99.90
10419;DHT22;5256;48.728;9.140;2024-01-15T02:18:11;-2.30;99.90
10419;DHT22;5256;48.728;9.140;2024-01-15T02:20:37;-2.30;99.90
10419;DHT22;5256;48.728;9.140;2024-01-15T02:23:10;-2.30;99.90
10419;DHT22;5256;48.728;9.140;2024-01-15T02:25:41;-2.30;99.90
10419;DHT22;5256;48.728;9.140;2024-01-15T02:28:09;-2.40;99.90
10419;DHT22;5256;48.728;9.140;2024-01-15T02:30:39;-2.40;99.90
10419;DHT22;5256;48.728;9.140;2024-01-15T02:33:09;-2.40;99.90
10419;DHT22;5256;48.728;9.140;2024-01-15T02:35:35;-2.50;99.90
10419;DHT22;5256;48.728;9.140;2024-01-15T02:38:04;-2.60;99.90
10419;DHT22;5256;48.728;9.140;2024-01-15T02:40:30;-2.60;99.90
10419;DHT22;5256;48.728;9.140;2024-01-15T02:42:55;-2.70;99.90
10419;DHT22;5256;48.728;9.140;2024-01-15T02:45:21;-2.70;99.90
10419;DHT22;5256;48.728;9.140;2024-01-15T02:47:47;-2.70;99.90
10419;DHT22;5256;48.728;9.140;2024-01-15T02:50:13;-2.80;99.90
10419;DHT22;5256;48.728;9.140;2024-01-15T02:52:38;-2.70;99.90
10419;DHT22;5256;48.728;9.140;2024-01-15T02:55:04;-2.70;99.90
10419;DHT22;5256;48.728;9.140;2024-01-15T02:57:30;-2.80;99.90
10419;DHT22;5256;48.728;9.140;2024-01-15T02:59:55;-2.80;99.90
10419;DHT22;5256;48.728;9.140;2024-01-15T03:02:21;-2.80;99.90
10419;DHT22;5256;48.728;9.140;2024-01-15T03:04:46;-2.80;99.90
10419;DHT22;5256;48.728;9.140;2024-01-15T03:07:12;-2.80;99.90
10419;DHT22;5256;48.728;9.140;2024-01-15T03:09:38;-2.80;99.90
10419;DHT22;5256;48.728;9.140;2024-01-15T03:12:04;-2.80;99.90
10419;DHT22;5256;48.728;9.140;2024-01-15T03:14:30;-2.90;99.90
10419;DHT22;5256;48.728;9.140;2024-01-15T03:16:55;-2.90;99.90
10419;DHT22;5256;48.728;9.140;2024-01-15T03:19:21;-2.90;99.90
10419;DHT22;5256;48.728;9.140;2024-01-15T03:21:47;-2.90;99.90
10419;DHT22;5256;48.728;9.140;2024-01-15T03:24:12;-2.90;99.90
10419;DHT22;5256;48.728;9.140;2024-01-15T03:26:38;-2.90;99.90
10419;DHT22;5256;48.728;9.140;2024-01-15T03:29:03;-2.80;99.90
10419;DHT22;5256;48.728;9.140;2024-01-15T03:31:29;-2.80;99.90
10419;DHT22;5256;48.728;9.140;2024-01-15T03:33:55;-2.80;99.90
10419;DHT22;5256;48.728;9.140;2024-01-15T03:36:20;-2.70;99.90
10419;DHT22;5256;48.728;9.140;2024-01-15T03:38:46;-2.60;99.90
10419;DHT22;5256;48.728;9.140;2024-01-15T03:41:12;-2.60;99.90
10419;DHT22;5256;48.728;9.140;2024-01-15T03:43:37;-2.50;99.90
10419;DHT22;5256;48.728;9.140;2024-01-15T03:46:03;-2.50;99.90
10419;DHT22;5256;48.728;9.140;2024-01-15T03:48:29;-2.50;99.90
10419;DHT22;5256;48.728;9.140;2024-01-15T03:50:55;-2.50;99.90
10419;DHT22;5256;48.728;9.140;2024-01-15T03:53:21;-2.50;99.90
10419;DHT22;5256;48.728;9.140;2024-01-15T03:55:46;-2.40;99.90
10419;DHT22;5256;48.728;9.140;2024-01-15T03:58:12;-2.30;99.90
10419;DHT22;5256;48.728;9.140;2024-01-15T04:00:40;-2.30;99.90
10419;DHT22;5256;48.728;9.140;2024-01-15T04:03:06;-2.30;99.90
10419;DHT22;5256;48.728;9.140;2024-01-15T04:05:31;-2.20;99.90
10419;DHT22;5256;48.728;9.140;2024-01-15T04:07:57;-2.20;99.90
10419;DHT22;5256;48.728;9.140;2024-01-15T04:10:23;-2.20;99.90
10419;DHT22;5256;48.728;9.140;2024-01-15T04:12:48;-2.10;99.90
10419;DHT22;5256;48.728;9.140;2024-01-15T04:15:14;-2.10;99.90
10419;DHT22;5256;48.728;9.140;2024-01-15T04:17:39;-2.00;99.90
10419;DHT22;5256;48.728;9.140;2024-01-15T04:20:05;-2.00;99.90
10419;DHT22;5256;48.728;9.140;2024-01-15T04:22:32;-2.00;99.90
10419;DHT22;5256;48.728;9.140;2024-01-15T04:24:58;-1.90;99.90
10419;DHT22;5256;48.728;9.140;2024-01-15T04:27:24;-1.80;99.90
10419;DHT22;5256;48.728;9.140;2024-01-15T04:29:49;-1.80;99.90
10419;DHT22;5256;48.728;9.140;2024-01-15T04:32:15;-1.70;99.90
10419;DHT22;5256;48.728;9.140;2024-01-15T04:34:41;-1.70;99.90
10419;DHT22;5256;48.728;9.140;2024-01-15T04:37:06;-1.60;99.90
10419;DHT22;5256;48.728;9.140;2024-01-15T04:39:32;-1.60;99.90
10419;DHT22;5256;48.728;9.140;2024-01-15T04:41:58;-1.50;99.90
10419;DHT22;5256;48.728;9.140;2024-01-15T04:44:23;-1.50;99.90
10419;DHT22;5256;48.728;9.140;2024-01-15T04:46:49;-1.50;99.90
10419;DHT22;5256;48.728;9.140;2024-01-15T04:49:14;-1.40;99.90
10419;DHT22;5256;48.728;9.140;2024-01-15T04:51:40;-1.40;99.90
10419;DHT22;5256;48.728;9.140;2024-01-15T04:54:05;-1.40;99.90
10419;DHT22;5256;48.728;9.140;2024-01-15T04:56:31;-1.40;99.90
10419;DHT22;5256;48.728;9.140;2024-01-15T04:58:56;-1.40;99.90
10419;DHT22;5256;48.728;9.140;2024-01-15T05:01:22;-1.40;99.90
10419;DHT22;5256;48.728;9.140;2024-01-15T05:03:48;-1.40;99.90
10419;DHT22;5256;48.728;9.140;2024-01-15T05:06:14;-1.40;99.90
10419;DHT22;5256;48.728;9.140;2024-01-15T05:08:41;-1.30;99.90
10419;DHT22;5256;48.728;9.140;2024-01-15T05:11:06;-1.30;99.90
10419;DHT22;5256;48.728;9.140;2024-01-15T05:13:32;-1.40;99.90
10419;DHT22;5256;48.728;9.140;2024-01-15T05:15:58;-1.40;99.90
10419;DHT22;5256;48.728;9.140;2024-01-15T05:18:23;-1.40;99.90
10419;DHT22;5256;48.728;9.140;2024-01-15T05:20:49;-1.40;99.90
10419;DHT22;5256;48.728;9.140;2024-01-15T05:23:14;-1.40;99.90
10419;DHT22;5256;48.728;9.140;2024-01-15T05:25:40;-1.40;99.90
10419;DHT22;5256;48.728;9.140;2024-01-15T05:28:05;-1.40;99.90
10419;DHT22;5256;48.728;9.140;2024-01-15T05:30:31;-1.40;99.90
10419;DHT22;5256;48.728;9.140;2024-01-15T05:32:56;-1.40;99.90
10419;DHT22;5256;48.728;9.140;2024-01-15T05:35:23;-1.40;99.90
10419;DHT22;5256;48.728;9.140;2024-01-15T05:37:48;-1.40;99.90
10419;DHT22;5256;48.728;9.140;2024-01-15T05:40:14;-1.40;99.90
10419;DHT22;5256;48.728;9.140;2024-01-15T05:42:40;-1.40;99.90
10419;DHT22;5256;48.728;9.140;2024-01-15T05:45:06;-1.40;99.90
10419;DHT22;5256;48.728;9.140;2024-01-15T05:47:32;-1.40;99.90
10419;DHT22;5256;48.728;9.140;2024-01-15T05:49:58;-1.40;99.90
10419;DHT22;5256;48.728;9.140;2024-01-15T05:52:24;-1.40;99.90
10419;DHT22;5256;48.728;9.140;2024-01-15T05:54:50;-1.40;99.90
10419;DHT22;5256;48.728;9.140;2024-01-15T05:57:16;-1.40;99.90
10419;DHT22;5256;48.728;9.140;2024-01-15T05:59:43;-1.40;99.90
10419;DHT22;5256;48.728;9.140;2024-01-15T06:02:09;-1.40;99.90
10419;DHT22;5256;48.728;9.140;2024-01-15T06:04:35;-1.40;99.90
10419;DHT22;5256;48.728;9.140;2024-01-15T06:07:00;-1.40;99.90
10419;DHT22;5256;48.728;9.140;2024-01-15T06:09:26;-1.50;99.90
10419;DHT22;5256;48.728;9.140;2024-01-15T06:11:51;-1.40;99.90
10419;DHT22;5256;48.728;9.140;2024-01-15T06:14:17;-1.40;99.90
10419;DHT22;5256;48.728;9.140;2024-01-15T06:16:42;-1.50;99.90
10419;DHT22;5256;48.728;9.140;2024-01-15T06:19:08;-1.40;99.90
10419;DHT22;5256;48.728;9.140;2024-01-15T06:21:33;-1.40;99.90
10419;DHT22;5256;48.728;9.140;2024-01-15T06:23:59;-1.40;99.90
10419;DHT22;5256;48.728;9.140;2024-01-15T06:26:25;-1.50;99.90
10419;DHT22;5256;48.728;9.140;2024-01-15T06:28:50;-1.50;99.90
10419;DHT22;5256;48.728;9.140;2024-01-15T06:31:16;-1.50;99.90
10419;DHT22;5256;48.728;9.140;2024-01-15T06:33:42;-1.40;99.90
10419;DHT22;5256;48.728;9.140;2024-01-15T06:36:08;-1.40;99.90
10419;DHT22;5256;48.728;9.140;2024-01-15T06:38:33;-1.40;99.90
10419;DHT22;5256;48.728;9.140;2024-01-15T06:40:59;-1.50;99.90
10419;DHT22;5256;48.728;9.140;2024-01-15T06:43:25;-1.40;99.90
10419;DHT22;5256;48.728;9.140;2024-01-15T06:45:51;-1.40;99.90
10419;DHT22;5256;48.728;9.140;2024-01-15T06:48:16;-1.40;99.90
10419;DHT22;5256;48.728;9.140;2024-01-15T06:50:45;-1.40;99.90
10419;DHT22;5256;48.728;9.140;2024-01-15T06:53:11;-1.40;99.90
10419;DHT22;5256;48.728;9.140;2024-01-15T06:55:37;-1.40;99.90
10419;DHT22;5256;48.728;9.140;2024-01-15T06:58:03;-1.40;99.90
10419;DHT22;5256;48.728;9.140;2024-01-15T07:00:29;-1.40;99.90
10419;DHT22;5256;48.728;9.140;2024-01-15T07:02:54;-1.30;99.90
10419;DHT22;5256;48.728;9.140;2024-01-15T07:05:23;-1.30;99.90
10419;DHT22;5256;48.728;9.140;2024-01-15T07:07:49;-1.30;99.90
10419;DHT22;5256;48.728;9.140;2024-01-15T07:10:15;-1.30;99.90
10419;DHT22;5256;48.728;9.140;2024-01-15T07:12:44;-1.30;99.90
10419;DHT22;5256;48.728;9.140;2024-01-15T07:15:10;-1.30;99.90
10419;DHT22;5256;48.728;9.140;2024-01-15T07:17:36;-1.30;99.90
10419;DHT22;5256;48.728;9.140;2024-01-15T07:20:09;-1.20;99.90
10419;DHT22;5256;48.728;9.140;2024-01-15T07:22:37;-1.30;99.90
10419;DHT22;5256;48.728;9.140;2024-01-15T07:25:04;-1.30;99.90
10419;DHT22;5256;48.728;9.140;2024-01-15T07:27:30;-1.30;99.90
10419;DHT22;5256;48.728;9.140;2024-01-15T07:29:56;-1.30;99.90
10419;DHT22;5256;48.728;9.140;2024-01-15T07:32:22;-1.30;99.90
10419;DHT22;5256;48.728;9.140;2024-01-15T07:34:47;-1.30;99.90
10419;DHT22;5256;48.728;9.140;2024-01-15T07:37:13;-1.30;99.90
10419;DHT22;5256;48.728;9.140;2024-01-15T07:39:39;-1.20;99.90
10419;DHT22;5256;48.728;9.140;2024-01-15T07:42:04;-1.20;99.90
10419;DHT22;5256;48.728;9.140;2024-01-15T07:44:30;-1.20;99.90
10419;DHT22;5256;48.728;9.140;2024-01-15T07:46:56;-1.20;99.90
10419;DHT22;5256;48.728;9.140;2024-01-15T07:49:21;-1.10;99.90
10419;DHT22;5256;48.728;9.140;2024-01-15T07:51:49;-1.10;99.90
10419;DHT22;5256;48.728;9.140;2024-01-15T07:54:14;-1.10;99.90
10419;DHT22;5256;48.728;9.140;2024-01-15T07:57:00;-1.10;99.90
10419;DHT22;5256;48.728;9.140;2024-01-15T07:59:26;-1.00;99.90
10419;DHT22;5256;48.728;9.140;2024-01-15T08:01:52;-1.00;99.90
10419;DHT22;5256;48.728;9.140;2024-01-15T08:04:19;-1.00;99.90
10419;DHT22;5256;48.728;9.140;2024-01-15T08:06:45;-0.90;99.90
10419;DHT22;5256;48.728;9.140;2024-01-15T08:09:11;-0.90;99.90
10419;DHT22;5256;48.728;9.140;2024-01-15T08:11:41;-0.90;99.90
10419;DHT22;5256;48.728;9.140;2024-01-15T08:14:08;-0.90;99.90
10419;DHT22;5256;48.728;9.140;2024-01-15T08:16:33;-0.90;99.90
10419;DHT22;5256;48.728;9.140;2024-01-15T08:18:59;-0.80;99.90
10419;DHT22;5256;48.728;9.140;2024-01-15T08:21:25;-0.80;99.90
10419;DHT22;5256;48.728;9.140;2024-01-15T08:23:50;-0.80;99.90
10419;DHT22;5256;48.728;9.140;2024-01-15T08:26:16;-0.80;99.90
10419;DHT22;5256;48.728;9.140;2024-01-15T08:28:42;-0.80;99.90
10419;DHT22;5256;48.728;9.140;2024-01-15T08:31:07;-0.80;99.90
10419;DHT22;5256;48.728;9.140;2024-01-15T08:33:33;-0.70;99.90
10419;DHT22;5256;48.728;9.140;2024-01-15T08:35:58;-0.70;99.90
10419;DHT22;5256;48.728;9.140;2024-01-15T08:38:24;-0.70;99.90
10419;DHT22;5256;48.728;9.140;2024-01-15T08:40:50;-0.60;99.90
10419;DHT22;5256;48.728;9.140;2024-01-15T08:43:18;-0.50;99.90
10419;DHT22;5256;48.728;9.140;2024-01-15T08:45:44;-0.50;99.90
10419;DHT22;5256;48.728;9.140;2024-01-15T08:48:10;-0.40;99.90
10419;DHT22;5256;48.728;9.140;2024-01-15T08:50:36;-0.40;99.90
10419;DHT22;5256;48.728;9.140;2024-01-15T08:53:01;-0.30;99.90
10419;DHT22;5256;48.728;9.140;2024-01-15T08:55:27;-0.20;99.90
10419;DHT22;5256;48.728;9.140;2024-01-15T08:57:52;-0.20;99.90
10419;DHT22;5256;48.728;9.140;2024-01-15T09:00:18;-0.20;99.90
10419;DHT22;5256;48.728;9.140;2024-01-15T09:02:44;-0.20;99.90
10419;DHT22;5256;48.728;9.140;2024-01-15T09:05:10;-0.10;99.90
10419;DHT22;5256;48.728;9.140;2024-01-15T09:07:35;-0.10;99.90
10419;DHT22;5256;48.728;9.140;2024-01-15T09:10:01;0.00;99.90
10419;DHT22;5256;48.728;9.140;2024-01-15T09:12:27;0.00;99.90
10419;DHT22;5256;48.728;9.140;2024-01-15T09:14:53;0.00;99.90
10419;DHT22;5256;48.728;9.140;2024-01-15T09:17:19;0.00;99.90
10419;DHT22;5256;48.728;9.140;2024-01-15T09:19:45;0.00;99.90
10419;DHT22;5256;48.728;9.140;2024-01-15T09:22:12;0.00;99.90
10419;DHT22;5256;48.728;9.140;2024-01-15T09:24:40;0.00;99.90
10419;DHT22;5256;48.728;9.140;2024-01-15T09:27:06;0.00;99.90
10419;DHT22;5256;48.728;9.140;2024-01-15T09:29:31;0.00;99.90
10419;DHT22;5256;48.728;9.140;2024-01-15T09:31:57;0.10;99.90
10419;DHT22;5256;48.728;9.140;2024-01-15T09:34:22;0.10;99.90
10419;DHT22;5256;48.728;9.140;2024-01-15T09:36:48;0.10;99.90
10419;DHT22;5256;48.728;9.140;2024-01-15T09:39:14;0.10;99.90
10419;DHT22;5256;48.728;9.140;2024-01-15T09:41:41;0.20;99.90
10419;DHT22;5256;48.728;9.140;2024-01-15T09:44:07;0.20;99.90
10419;DHT22;5256;48.728;9.140;2024-01-15T09:46:34;0.20;99.90
10419;DHT22;5256;48.728;9.140;2024-01-15T09:49:00;0.20;99.90
10419;DHT22;5256;48.728;9.140;2024-01-15T09:51:30;0.20;99.90
10419;DHT22;5256;48.728;9.140;2024-01-15T09:53:57;0.30;99.90
10419;DHT22;5256;48.728;9.140;2024-01-15T09:56:23;0.30;99.90
10419;DHT22;5256;48.728;9.140;2024-01-15T09:58:50;0.30;99.90
10419;DHT22;5256;48.728;9.140;2024-01-15T10:01:17;0.40;99.90
10419;DHT22;5256;48.728;9.140;2024-01-15T10:03:43;0.40;99.90
10419;DHT22;5256;48.728;9.140;2024-01-15T10:06:09;0.40;99.90
10419;DHT22;5256;48.728;9.140;2024-01-15T10:08:36;0.40;99.90
10419;DHT22;5256;48.728;9.140;2024-01-15T10:11:02;0.30;99.90
10419;DHT22;5256;48.728;9.140;2024-01-15T10:13:30;0.30;99.90
10419;DHT22;5256;48.728;9.140;2024-01-15T10:15:55;0.30;99.90
10419;DHT22;5256;48.728;9.140;2024-01-15T10:18:21;0.40;99.90
10419;DHT22;5256;48.728;9.140;2024-01-15T10:20:47;0.40;99.90
10419;DHT22;5256;48.728;9.140;2024-01-15T10:23:14;0.50;99.90
10419;DHT22;5256;48.728;9.140;2024-01-15T10:25:42;0.40;99.90
10419;DHT22;5256;48.728;9.140;2024-01-15T10:28:07;0.40;99.90
10419;DHT22;5256;48.728;9.140;2024-01-15T10:30:34;0.40;99.90
10419;DHT22;5256;48.728;9.140;2024-01-15T10:33:03;0.40;99.90
10419;DHT22;5256;48.728;9.140;2024-01-15T10:35:35;0.40;99.90
10419;DHT22;5256;48.728;9.140;2024-01-15T10:38:01;0.40;99.90
10419;DHT22;5256;48.728;9.140;2024-01-15T10:40:28;0.40;99.90
10419;DHT22;5256;48.728;9.140;2024-01-15T10:42:54;0.40;99.90
10419;DHT22;5256;48.728;9.140;2024-01-15T10:45:20;0.50;99.90
10419;DHT22;5256;48.728;9.140;2024-01-15T10:47:46;0.40;99.90
10419;DHT22;5256;48.728;9.140;2024-01-15T10:50:12;0.40;99.90
10419;DHT22;5256;48.728;9.140;2024-01-15T10:52:39;0.40;99.90
10419;DHT22;5256;48.728;9.140;2024-01-15T10:55:07;0.40;99.90
10419;DHT22;5256;48.728;9.140;2024-01-15T10:57:35;0.40;99.90
10419;DHT22;5256;48.728;9.140;2024-01-15T11:00:01;0.50;99.90
10419;DHT22;5256;48.728;9.140;2024-01-15T11:02:29;0.50;99.90
10419;DHT22;5256;48.728;9.140;2024-01-15T11:04:55;0.60;99.90
10419;DHT22;5256;48.728;9.140;2024-01-15T11:07:22;0.60;99.90
10419;DHT22;5256;48.728;9.140;2024-01-15T11:09:50;0.60;99.90
10419;DHT22;5256;48.728;9.140;2024-01-15T11:12:16;0.60;99.90
10419;DHT22;5256;48.728;9.140;2024-01-15T11:14:49;0.50;99.90
10419;DHT22;5256;48.728;9.140;2024-01-15T11:17:16;0.60;99.90
10419;DHT22;5256;48.728;9.140;2024-01-15T11:19:46;0.60;99.90
10419;DHT22;5256;48.728;9.140;2024-01-15T11:25:18;0.70;99.90
10419;DHT22;5256;48.728;9.140;2024-01-15T11:27:49;0.80;99.90
10419;DHT22;5256;48.728;9.140;2024-01-15T11:30:25;0.70;99.90
10419;DHT22;5256;48.728;9.140;2024-01-15T11:32:53;0.70;99.90
10419;DHT22;5256;48.728;9.140;2024-01-15T11:35:19;0.70;99.90
10419;DHT22;5256;48.728;9.140;2024-01-15T11:40:13;0.60;99.90
10419;DHT22;5256;48.728;9.140;2024-01-15T11:42:42;0.60;99.90
10419;DHT22;5256;48.728;9.140;2024-01-15T11:45:08;0.60;99.90
10419;DHT22;5256;48.728;9.140;2024-01-15T11:50:17;0.50;99.90
10419;DHT22;5256;48.728;9.140;2024-01-15T11:52:51;0.50;99.90
10419;DHT22;5256;48.728;9.140;2024-01-15T11:55:27;0.50;99.90
10419;DHT22;5256;48.728;9.140;2024-01-15T11:57:54;0.50;99.90
10419;DHT22;5256;48.728;9.140;2024-01-15T12:00:23;0.40;99.90
10419;DHT22;5256;48.728;9.140;2024-01-15T12:02:50;0.40;99.90
10419;DHT22;5256;48.728;9.140;2024-01-15T12:05:19;0.40;99.90
10419;DHT22;5256;48.728;9.140;2024-01-15T12:07:48;0.40;99.90
10419;DHT22;5256;48.728;9.140;2024-01-15T12:10:15;0.40;99.90
10419;DHT22;5256;48.728;9.140;2024-01-15T12:12:57;0.50;99.90
10419;DHT22;5256;48.728;9.140;2024-01-15T12:15:23;0.40;99.90
10419;DHT22;5256;48.728;9.140;2024-01-15T12:17:49;0.40;99.90
10419;DHT22;5256;48.728;9.140;2024-01-15T12:20:15;0.20;99.90
10419;DHT22;5256;48.728;9.140;2024-01-15T12:22:44;0.10;99.90
10419;DHT22;5256;48.728;9.140;2024-01-15T12:25:10;0.00;99.90
10419;DHT22;5256;48.728;9.140;2024-01-15T12:27:36;0.00;99.90
10419;DHT22;5256;48.728;9.140;2024-01-15T12:30:01;-0.10;99.90
10419;DHT22;5256;48.728;9.140;2024-01-15T12:32:27;-0.20;99.90
10419;DHT22;5256;48.728;9.140;2024-01-15T12:34:52;-0.30;99.90
10419;DHT22;5256;48.728;9.140;2024-01-15T12:37:18;-0.40;99.90
10419;DHT22;5256;48.728;9.140;2024-01-15T12:39:45;-0.40;99.90
10419;DHT22;5256;48.728;9.140;2024-01-15T12:42:11;-0.50;99.90
10419;DHT22;5256;48.728;9.140;2024-01-15T12:44:39;-0.40;99.90
10419;DHT22;5256;48.728;9.140;2024-01-15T12:47:05;-0.40;99.90
10419;DHT22;5256;48.728;9.140;2024-01-15T12:49:31;-0.40;99.90
10419;DHT22;5256;48.728;9.140;2024-01-15T12:51:59;-0.40;99.90
10419;DHT22;5256;48.728;9.140;2024-01-15T12:54:28;-0.30;99.90
10419;DHT22;5256;48.728;9.140;2024-01-15T12:56:54;-0.40;99.90
10419;DHT22;5256;48.728;9.140;2024-01-15T12:59:19;-0.30;99.90
10419;DHT22;5256;48.728;9.140;2024-01-15T13:01:46;-0.30;99.90
10419;DHT22;5256;48.728;9.140;2024-01-15T13:04:20;-0.30;99.90
10419;DHT22;5256;48.728;9.140;2024-01-15T13:06:46;-0.20;99.90
10419;DHT22;5256;48.728;9.140;2024-01-15T13:09:13;-0.20;99.90
10419;DHT22;5256;48.728;9.140;2024-01-15T13:11:38;-0.10;99.90
10419;DHT22;5256;48.728;9.140;2024-01-15T13:14:04;-0.20;99.90
10419;DHT22;5256;48.728;9.140;2024-01-15T13:16:30;-0.30;99.90
10419;DHT22;5256;48.728;9.140;2024-01-15T13:18:58;-0.10;99.90
10419;DHT22;5256;48.728;9.140;2024-01-15T13:21:24;-0.20;99.90
10419;DHT22;5256;48.728;9.140;2024-01-15T13:23:50;-0.30;99.90
10419;DHT22;5256;48.728;9.140;2024-01-15T13:26:16;-0.30;99.90
10419;DHT22;5256;48.728;9.140;2024-01-15T13:28:43;-0.40;99.90
10419;DHT22;5256;48.728;9.140;2024-01-15T13:31:12;-0.30;99.90
10419;DHT22;5256;48.728;9.140;2024-01-15T13:33:38;-0.30;99.90
10419;DHT22;5256;48.728;9.140;2024-01-15T13:36:08;-0.30;99.90
10419;DHT22;5256;48.728;9.140;2024-01-15T13:38:36;-0.30;99.90
10419;DHT22;5256;48.728;9.140;2024-01-15T13:41:04;-0.30;99.90
10419;DHT22;5256;48.728;9.140;2024-01-15T13:43:31;-0.30;99.90
10419;DHT22;5256;48.728;9.140;2024-01-15T13:45:57;-0.30;99.90
10419;DHT22;5256;48.728;9.140;2024-01-15T13:48:22;-0.30;99.90
10419;DHT22;5256;48.728;9.140;2024-01-15T13:50:48;-0.30;99.90
10419;DHT22;5256;48.728;9.140;2024-01-15T13:53:16;-0.20;99.90
10419;DHT22;5256;48.728;9.140;2024-01-15T13:55:42;-0.20;99.90
10419;DHT22;5256;48.728;9.140;2024-01-15T13:58:08;-0.20;99.90
10419;DHT22;5256;48.728;9.140;2024-01-15T14:00:34;-0.20;99.90
10419;DHT22;5256;48.728;9.140;2024-01-15T14:02:59;-0.20;99.90
10419;DHT22;5256;48.728;9.140;2024-01-15T14:05:25;-0.20;99.90
10419;DHT22;5256;48.728;9.140;2024-01-15T14:07:51;-0.20;99.90
10419;DHT22;5256;48.728;9.140;2024-01-15T14:10:16;-0.20;99.90
10419;DHT22;5256;48.728;9.140;2024-01-15T14:12:43;-0.20;99.90
10419;DHT22;5256;48.728;9.140;2024-01-15T14:15:08;-0.20;99.90
10419;DHT22;5256;48.728;9.140;2024-01-15T14:17:34;-0.20;99.90
10419;DHT22;5256;48.728;9.140;2024-01-15T14:20:00;-0.20;99.90
10419;DHT22;5256;48.728;9.140;2024-01-15T14:22:25;-0.20;99.90
10419;DHT22;5256;48.728;9.140;2024-01-15T14:24:51;-0.20;99.90
10419;DHT22;5256;48.728;9.140;2024-01-15T14:27:18;-0.10;99.90
10419;DHT22;5256;48.728;9.140;2024-01-15T14:29:43;-0.10;99.90
10419;DHT22;5256;48.728;9.140;2024-01-15T14:32:09;-0.10;99.90
10419;DHT22;5256;48.728;9.140;2024-01-15T14:34:35;-0.10;99.90
10419;DHT22;5256;48.728;9.140;2024-01-15T14:37:05;-0.10;99.90
10419;DHT22;5256;48.728;9.140;2024-01-15T14:39:31;-0.20;99.90
10419;DHT22;5256;48.728;9.140;2024-01-15T14:41:59;-0.10;99.90
10419;DHT22;5256;48.728;9.140;2024-01-15T14:44:25;-0.20;99.90
10419;DHT22;5256;48.728;9.140;2024-01-15T14:46:51;-0.30;99.90
10419;DHT22;5256;48.728;9.140;2024-01-15T14:49:17;-0.40;99.90
10419;DHT22;5256;48.728;9.140;2024-01-15T14:51:43;-0.40;99.90
10419;DHT22;5256;48.728;9.140;2024-01-15T14:54:11;-0.40;99.90
10419;DHT22;5256;48.728;9.140;2024-01-15T14:56:37;-0.40;99.90
10419;DHT22;5256;48.728;9.140;2024-01-15T14:59:03;-0.40;99.90
10419;DHT22;5256;48.728;9.140;2024-01-15T15:01:28;-0.40;99.90
10419;DHT22;5256;48.728;9.140;2024-01-15T15:03:54;-0.40;99.90
10419;DHT22;5256;48.728;9.140;2024-01-15T15:06:19;-0.40;99.90
10419;DHT22;5256;48.728;9.140;2024-01-15T15:08:46;-0.40;99.90
10419;DHT22;5256;48.728;9.140;2024-01-15T15:11:12;-0.50;99.90
10419;DHT22;5256;48.728;9.140;2024-01-15T15:13:37;-0.50;99.90
10419;DHT22;5256;48.728;9.140;2024-01-15T15:16:03;-0.50;99.90
10419;DHT22;5256;48.728;9.140;2024-01-15T15:18:29;-0.50;99.90
10419;DHT22;5256;48.728;9.140;2024-01-15T15:20:55;-0.60;99.90
10419;DHT22;5256;48.728;9.140;2024-01-15T15:23:21;-0.60;99.90
10419;DHT22;5256;48.728;9.140;2024-01-15T15:25:47;-0.60;99.90
10419;DHT22;5256;48.728;9.140;2024-01-15T15:28:13;-0.60;99.90
10419;DHT22;5256;48.728;9.140;2024-01-15T15:30:40;-0.60;99.90
10419;DHT22;5256;48.728;9.140;2024-01-15T15:33:06;-0.60;99.90
10419;DHT22;5256;48.728;9.140;2024-01-15T15:35:31;-0.60;99.90
10419;DHT22;5256;48.728;9.140;2024-01-15T15:37:57;-0.60;99.90
10419;DHT22;5256;48.728;9.140;2024-01-15T15:40:23;-0.60;99.90
10419;DHT22;5256;48.728;9.140;2024-01-15T15:42:52;-0.60;99.90
10419;DHT22;5256;48.728;9.140;2024-01-15T15:45:18;-0.70;99.90
10419;DHT22;5256;48.728;9.140;2024-01-15T15:47:44;-0.70;99.90
10419;DHT22;5256;48.728;9.140;2024-01-15T15:50:09;-0.60;99.90
10419;DHT22;5256;48.728;9.140;2024-01-15T15:52:35;-0.60;99.90